createdAt,value
2023-03-22T00:00:56.545Z,10.02
2023-03-22T00:02:58.188Z,9.10
2023-03-22T00:04:59.619Z,7.78
2023-03-22T00:07:01.289Z,8.02
2023-03-22T00:09:02.777Z,7.18
2023-03-22T00:11:05.258Z,8.63
2023-03-22T00:13:08.930Z,9.57
2023-03-22T00:15:11.182Z,6.85
2023-03-22T00:17:12.608Z,7.95
2023-03-22T00:19:14.028Z,6.45
2023-03-22T00:21:16.956Z,8.82
2023-03-22T00:23:18.588Z,6.63
2023-03-22T00:25:20.049Z,10.10
2023-03-22T00:27:21.423Z,7.38
2023-03-22T00:29:24.066Z,6.13
2023-03-22T00:31:25.577Z,8.07
2023-03-22T00:33:28.936Z,7.75
2023-03-22T00:35:30.710Z,7.55
2023-03-22T00:37:33.895Z,7.28
2023-03-22T00:39:35.293Z,8.27
2023-03-22T00:41:36.702Z,7.00
2023-03-22T00:43:38.402Z,6.38
2023-03-22T00:45:40.957Z,7.07
2023-03-22T00:47:42.392Z,5.97
2023-03-22T00:49:43.840Z,8.45
2023-03-22T00:51:45.390Z,9.90
2023-03-22T00:53:49.896Z,7.68
2023-03-22T00:55:51.402Z,8.25
2023-03-22T00:57:52.793Z,7.30
2023-03-22T00:59:55.821Z,7.15
2023-03-22T01:01:58.872Z,8.50
2023-03-22T01:04:00.375Z,6.90
2023-03-22T01:06:04.605Z,8.68
2023-03-22T01:08:08.285Z,7.63
2023-03-22T01:10:11.351Z,9.93
2023-03-22T01:12:13.017Z,9.20
2023-03-22T01:14:14.407Z,8.52
2023-03-22T01:16:17.086Z,7.45
2023-03-22T01:18:18.871Z,9.82
2023-03-22T01:20:20.658Z,8.25
2023-03-22T01:22:22.119Z,7.30
2023-03-22T01:24:23.781Z,8.05
2023-03-22T01:26:25.160Z,11.07
2023-03-22T01:28:27.420Z,6.80
2023-03-22T01:30:29.705Z,8.05
2023-03-22T01:32:31.108Z,9.15
2023-03-22T01:34:32.522Z,9.60
2023-03-22T01:36:34.015Z,7.03
2023-03-22T01:38:35.483Z,9.48
2023-03-22T01:40:37.044Z,11.98
2023-03-22T01:42:38.567Z,11.38
2023-03-22T01:44:45.038Z,9.35
2023-03-22T01:46:48.691Z,10.25
2023-03-22T01:48:50.106Z,10.52
2023-03-22T01:51:03.013Z,9.20
2023-03-22T01:53:08.267Z,10.90
2023-03-22T01:55:10.109Z,9.73
2023-03-22T01:57:12.112Z,10.45
2023-03-22T01:59:15.536Z,9.40
2023-03-22T02:01:17.113Z,10.13
2023-03-22T02:03:26.842Z,9.25
2023-03-22T02:05:29.022Z,10.38
2023-03-22T02:07:31.777Z,9.55
2023-03-22T02:09:34.073Z,10.93
2023-03-22T02:11:38.989Z,9.95
2023-03-22T02:14:06.265Z,9.65
2023-03-22T02:16:29.741Z,9.90
2023-03-22T02:18:54.594Z,9.43
2023-03-22T02:21:05.481Z,8.85
2023-03-22T02:23:43.522Z,9.90
2023-03-22T02:26:09.462Z,11.70
2023-03-22T02:28:29.374Z,10.32
2023-03-22T02:30:49.138Z,10.00
2023-03-22T02:33:00.120Z,10.02
2023-03-22T02:35:23.226Z,8.73
2023-03-22T02:38:09.525Z,9.30
2023-03-22T02:40:42.838Z,11.85
2023-03-22T02:42:50.978Z,10.25
2023-03-22T02:45:07.503Z,7.93
2023-03-22T02:47:24.433Z,13.65
2023-03-22T02:49:47.648Z,8.70
2023-03-22T02:51:55.772Z,10.38
2023-03-22T02:54:09.617Z,8.77
2023-03-22T02:56:16.760Z,8.90
2023-03-22T02:58:45.814Z,9.77
2023-03-22T03:00:51.024Z,11.05
2023-03-22T03:02:57.504Z,8.82
2023-03-22T03:04:59.411Z,9.85
2023-03-22T03:07:09.738Z,9.52
2023-03-22T03:09:13.667Z,12.23
2023-03-22T03:11:15.158Z,9.55
2023-03-22T03:13:18.733Z,8.38
2023-03-22T03:15:23.766Z,10.25
2023-03-22T03:17:50.224Z,10.02
2023-03-22T03:20:21.967Z,10.55
2023-03-22T03:22:43.499Z,9.05
2023-03-22T03:25:14.692Z,9.63
2023-03-22T03:27:25.635Z,9.55
2023-03-22T03:29:55.931Z,10.13
2023-03-22T03:32:16.460Z,9.95
2023-03-22T03:34:20.565Z,11.00
2023-03-22T03:36:24.489Z,9.13
2023-03-22T03:38:29.703Z,7.75
2023-03-22T03:40:36.105Z,14.18
2023-03-22T03:42:43.359Z,11.05
2023-03-22T03:44:45.394Z,10.77
2023-03-22T03:46:48.840Z,10.93
2023-03-22T03:48:52.804Z,8.35
2023-03-22T03:50:56.060Z,10.23
2023-03-22T03:52:58.414Z,10.50
2023-03-22T03:55:00.036Z,10.13
2023-03-22T03:57:04.010Z,12.02
2023-03-22T03:59:05.818Z,14.27
2023-03-22T04:01:07.525Z,10.50
2023-03-22T04:03:09.074Z,11.70
2023-03-22T04:05:12.073Z,9.90
2023-03-22T04:07:13.451Z,10.18
2023-03-22T04:09:14.845Z,10.63
2023-03-22T04:11:16.267Z,12.93
2023-03-22T04:13:21.408Z,10.30
2023-03-22T04:15:24.057Z,10.80
2023-03-22T04:17:27.060Z,9.23
2023-03-22T04:19:28.427Z,12.57
2023-03-22T04:21:29.885Z,7.80
2023-03-22T04:23:33.095Z,10.65
2023-03-22T04:25:37.793Z,9.77
2023-03-22T04:27:40.528Z,8.77
2023-03-22T04:29:48.496Z,7.97
2023-03-22T04:31:50.371Z,9.57
2023-03-22T04:33:56.477Z,10.45
2023-03-22T04:35:59.308Z,9.43
2023-03-22T04:38:01.420Z,12.00
2023-03-22T04:40:06.749Z,13.45
2023-03-22T04:42:08.678Z,11.13
2023-03-22T04:44:10.144Z,14.23
2023-03-22T04:46:12.628Z,8.57
2023-03-22T04:48:14.178Z,8.95
2023-03-22T04:50:15.703Z,12.02
2023-03-22T04:52:17.244Z,9.75
2023-03-22T04:54:18.816Z,10.18
2023-03-22T04:56:20.890Z,9.85
2023-03-22T04:58:26.154Z,10.77
2023-03-22T05:00:30.085Z,9.75
2023-03-22T05:02:32.144Z,9.88
2023-03-22T05:04:33.546Z,10.88
2023-03-22T05:06:35.022Z,10.70
2023-03-22T05:08:36.591Z,11.18
2023-03-22T05:10:40.542Z,12.60
2023-03-22T05:12:42.212Z,12.23
2023-03-22T05:14:43.694Z,10.60
2023-03-22T05:16:45.174Z,9.98
2023-03-22T05:18:46.772Z,10.98
2023-03-22T05:20:48.692Z,10.15
2023-03-22T05:22:50.484Z,13.45
2023-03-22T05:24:51.956Z,10.90
2023-03-22T05:26:53.861Z,10.65
2023-03-22T05:28:55.711Z,11.60
2023-03-22T05:30:57.491Z,10.68
2023-03-22T05:33:03.023Z,10.27
2023-03-22T05:35:04.975Z,10.32
2023-03-22T05:37:06.441Z,11.82
2023-03-22T05:39:08.103Z,10.25
2023-03-22T05:41:10.565Z,10.98
2023-03-22T05:43:12.629Z,11.73
2023-03-22T05:45:14.273Z,12.73
2023-03-22T05:47:15.992Z,8.13
2023-03-22T05:49:17.435Z,11.45
2023-03-22T05:51:19.218Z,16.33
2023-03-22T05:53:20.678Z,10.85
2023-03-22T05:55:23.142Z,10.95
2023-03-22T05:57:24.652Z,8.88
2023-03-22T05:59:27.044Z,10.25
2023-03-22T06:01:28.419Z,11.05
2023-03-22T06:03:29.885Z,10.65
2023-03-22T06:05:32.030Z,9.13
2023-03-22T06:07:33.466Z,10.25
2023-03-22T06:09:34.888Z,10.13
2023-03-22T06:11:36.316Z,12.45
2023-03-22T06:13:37.866Z,10.07
2023-03-22T06:15:39.254Z,9.52
2023-03-22T06:17:41.474Z,9.65
2023-03-22T06:19:42.912Z,8.30
2023-03-22T06:21:44.323Z,10.55
2023-03-22T06:23:45.778Z,12.85
2023-03-22T06:25:47.559Z,9.43
2023-03-22T06:27:49.105Z,9.88
2023-03-22T06:29:54.581Z,12.82
2023-03-22T06:31:56.026Z,10.63
2023-03-22T06:33:57.471Z,12.93
2023-03-22T06:36:00.744Z,11.68
2023-03-22T06:38:02.256Z,10.80
2023-03-22T06:40:04.351Z,13.82
2023-03-22T06:42:06.365Z,10.23
2023-03-22T06:44:07.731Z,10.85
2023-03-22T06:46:09.209Z,9.88
2023-03-22T06:48:10.910Z,11.27
2023-03-22T06:50:12.735Z,11.23
2023-03-22T06:52:14.285Z,13.05
2023-03-22T06:54:19.481Z,9.60
2023-03-22T06:56:20.852Z,11.85
2023-03-22T06:58:22.533Z,10.13
2023-03-22T07:00:24.101Z,8.48
2023-03-22T07:02:25.499Z,9.30
2023-03-22T07:04:28.080Z,9.15
2023-03-22T07:06:30.811Z,9.77
2023-03-22T07:08:32.356Z,9.82
2023-03-22T07:10:33.753Z,10.02
2023-03-22T07:12:35.987Z,9.48
2023-03-22T07:14:37.480Z,9.10
2023-03-22T07:16:38.838Z,10.68
2023-03-22T07:18:40.250Z,8.50
2023-03-22T07:20:42.473Z,7.85
2023-03-22T07:22:44.349Z,9.10
2023-03-22T07:24:56.207Z,10.15
2023-03-22T07:26:58.493Z,7.40
2023-03-22T07:28:59.965Z,8.60
2023-03-22T07:31:07.780Z,10.25
2023-03-22T07:33:10.480Z,9.77
2023-03-22T07:35:11.926Z,9.07
2023-03-22T07:37:13.384Z,10.65
2023-03-22T07:39:14.825Z,7.32
2023-03-22T07:41:16.290Z,9.07
2023-03-22T07:43:17.693Z,7.53
2023-03-22T07:45:20.348Z,8.18
2023-03-22T07:47:37.746Z,7.35
2023-03-22T07:49:41.588Z,7.72
2023-03-22T07:51:42.995Z,8.05
2023-03-22T07:53:44.446Z,7.65
2023-03-22T07:55:47.655Z,7.97
2023-03-22T07:57:49.143Z,6.75
2023-03-22T07:59:50.641Z,7.57
2023-03-22T08:01:52.133Z,5.78
2023-03-22T08:03:53.574Z,7.90
2023-03-22T08:05:54.963Z,7.28
2023-03-22T08:07:56.891Z,6.03
2023-03-22T08:09:59.270Z,6.03
2023-03-22T08:12:00.790Z,6.15
2023-03-22T08:14:02.288Z,5.05
2023-03-22T08:16:04.198Z,6.38
2023-03-22T08:18:05.613Z,5.78
2023-03-22T08:20:08.885Z,5.65
2023-03-22T08:22:11.890Z,8.40
2023-03-22T08:24:15.802Z,6.63
2023-03-22T08:26:17.698Z,7.07
2023-03-22T08:28:19.618Z,7.30
2023-03-22T08:30:22.302Z,6.32
2023-03-22T08:32:24.243Z,6.80
2023-03-22T08:34:25.669Z,5.88
2023-03-22T08:36:27.151Z,10.20
2023-03-22T08:38:28.549Z,7.22
2023-03-22T08:40:30.322Z,6.43
2023-03-22T08:42:31.817Z,5.47
2023-03-22T08:44:33.193Z,7.47
2023-03-22T08:46:34.810Z,6.40
2023-03-22T08:48:37.854Z,7.93
2023-03-22T08:50:39.760Z,5.50
2023-03-22T08:52:41.194Z,6.85
2023-03-22T08:54:42.816Z,6.00
2023-03-22T08:56:44.596Z,6.80
2023-03-22T08:58:46.978Z,5.32
2023-03-22T09:00:49.811Z,6.82
2023-03-22T09:02:51.355Z,6.35
2023-03-22T09:04:53.363Z,6.13
2023-03-22T09:06:54.800Z,6.38
2023-03-22T09:08:56.630Z,7.30
2023-03-22T09:10:58.059Z,5.85
2023-03-22T09:12:59.591Z,6.55
2023-03-22T09:15:01.006Z,5.68
2023-03-22T09:17:02.577Z,6.13
2023-03-22T09:19:04.239Z,8.07
2023-03-22T09:21:07.328Z,4.20
2023-03-22T09:23:08.729Z,7.25
2023-03-22T09:25:12.648Z,5.78
2023-03-22T09:27:14.503Z,7.70
2023-03-22T09:29:15.970Z,6.10
2023-03-22T09:31:20.348Z,5.25
2023-03-22T09:33:23.081Z,7.15
2023-03-22T09:35:24.530Z,4.82
2023-03-22T09:37:30.163Z,4.85
2023-03-22T09:39:31.607Z,5.88
2023-03-22T09:41:57.079Z,5.35
2023-03-22T09:44:02.923Z,7.60
2023-03-22T09:46:11.087Z,6.53
2023-03-22T09:48:27.503Z,4.88
2023-03-22T09:50:32.340Z,6.25
2023-03-22T09:52:34.445Z,6.20
2023-03-22T09:54:39.494Z,3.55
2023-03-22T09:56:41.159Z,5.90
2023-03-22T09:58:55.236Z,4.30
2023-03-22T10:01:20.762Z,5.32
2023-03-22T10:03:37.547Z,4.82
2023-03-22T10:05:50.116Z,5.55
2023-03-22T10:08:00.410Z,4.50
2023-03-22T10:10:28.723Z,4.55
2023-03-22T10:12:42.623Z,4.65
2023-03-22T10:15:01.953Z,3.42
2023-03-22T10:19:19.329Z,3.67
2023-03-22T10:21:21.285Z,4.50
2023-03-22T10:23:29.951Z,4.65
2023-03-22T10:25:36.986Z,3.95
2023-03-22T10:27:38.506Z,4.22
2023-03-22T10:29:43.519Z,3.67
2023-03-22T10:31:45.950Z,7.00
2023-03-22T10:34:06.558Z,2.17
2023-03-22T10:36:13.764Z,2.25
2023-03-22T10:38:23.621Z,4.80
2023-03-22T10:40:28.517Z,4.38
2023-03-22T10:42:31.064Z,2.92
2023-03-22T10:44:47.971Z,6.07
2023-03-22T10:46:51.706Z,4.72
2023-03-22T10:49:01.026Z,2.83
2023-03-22T10:51:04.113Z,4.40
2023-03-22T10:53:36.993Z,4.18
2023-03-22T10:55:43.864Z,3.90
2023-03-22T10:58:00.130Z,2.25
2023-03-22T11:00:08.301Z,4.38
2023-03-22T11:02:26.415Z,3.70
2023-03-22T11:04:31.267Z,3.65
2023-03-22T11:06:36.804Z,2.85
2023-03-22T11:08:50.699Z,5.38
2023-03-22T11:10:54.998Z,2.30
2023-03-22T11:13:12.191Z,2.42
2023-03-22T11:15:27.939Z,3.72
2023-03-22T11:17:31.110Z,3.92
2023-03-22T11:19:38.063Z,6.43
2023-03-22T11:21:43.151Z,3.65
2023-03-22T11:23:53.937Z,2.92
2023-03-22T11:25:56.993Z,2.70
2023-03-22T11:28:16.959Z,2.97
2023-03-22T11:30:31.537Z,3.88
2023-03-22T11:32:37.208Z,3.17
2023-03-22T11:37:08.400Z,5.10
2023-03-22T11:39:11.853Z,2.97
2023-03-22T11:41:26.383Z,4.70
2023-03-22T11:43:40.493Z,2.58
2023-03-22T11:45:43.952Z,3.92
2023-03-22T11:51:12.502Z,4.60
2023-03-22T11:53:17.722Z,3.00
2023-03-22T11:55:19.653Z,3.85
2023-03-22T11:57:27.809Z,3.83
2023-03-22T11:59:36.672Z,3.47
2023-03-22T12:01:52.139Z,6.50
2023-03-22T12:03:57.203Z,7.18
2023-03-22T12:06:04.529Z,2.95
2023-03-22T12:08:16.074Z,5.65
2023-03-22T12:10:25.074Z,4.40
2023-03-22T12:12:31.187Z,2.63
2023-03-22T12:14:54.348Z,4.90
2023-03-22T12:17:10.974Z,3.58
2023-03-22T12:19:26.994Z,3.17
2023-03-22T12:21:29.035Z,2.30
2023-03-22T12:23:32.603Z,2.47
2023-03-22T12:25:36.663Z,2.42
2023-03-22T12:27:41.581Z,2.75
2023-03-22T12:29:51.490Z,4.15
2023-03-22T12:32:08.385Z,2.95
2023-03-22T12:34:16.874Z,3.45
2023-03-22T12:36:22.036Z,2.28
2023-03-22T12:38:35.449Z,4.10
2023-03-22T12:40:40.853Z,3.78
2023-03-22T12:43:06.731Z,2.67
2023-03-22T12:45:15.573Z,3.35
2023-03-22T12:47:17.142Z,2.05
2023-03-22T12:49:34.669Z,3.33
2023-03-22T12:51:36.771Z,4.97
2023-03-22T12:53:45.650Z,3.75
2023-03-22T12:55:48.538Z,3.10
2023-03-22T12:57:54.461Z,5.70
2023-03-22T13:00:01.536Z,1.15
2023-03-22T13:02:15.957Z,5.15
2023-03-22T13:04:37.026Z,5.78
2023-03-22T13:06:41.445Z,4.03
2023-03-22T13:09:04.521Z,4.32
2023-03-22T13:11:06.245Z,1.88
2023-03-22T13:13:31.677Z,1.75
2023-03-22T13:15:41.814Z,3.47
2023-03-22T13:17:45.279Z,4.57
2023-03-22T13:20:19.884Z,4.43
2023-03-22T13:22:44.181Z,4.60
2023-03-22T13:25:17.102Z,2.35
2023-03-22T13:27:19.011Z,3.50
2023-03-22T13:29:20.530Z,1.10
2023-03-22T13:31:40.803Z,2.78
2023-03-22T13:33:43.128Z,4.60
2023-03-22T13:35:51.140Z,2.92
2023-03-22T13:37:53.196Z,2.45
2023-03-22T13:39:54.630Z,3.90
2023-03-22T13:42:08.141Z,2.63
2023-03-22T13:44:26.909Z,2.25
2023-03-22T13:46:44.520Z,3.05
2023-03-22T13:48:52.377Z,3.42
2023-03-22T13:50:54.260Z,3.95
2023-03-22T13:53:14.631Z,5.10
2023-03-22T13:55:43.517Z,2.60
2023-03-22T13:57:45.456Z,4.55
2023-03-22T14:00:15.556Z,4.28
2023-03-22T14:02:33.710Z,3.67
2023-03-22T14:04:48.658Z,3.80
2023-03-22T14:06:56.039Z,3.88
2023-03-22T14:09:02.421Z,2.85
2023-03-22T14:11:20.082Z,6.50
2023-03-22T14:14:04.242Z,4.00
2023-03-22T14:16:42.927Z,4.65
2023-03-22T14:18:48.645Z,3.45
2023-03-22T14:20:59.007Z,6.82
